Relevés horaires Bruxelles-National (Belgique)


Relevés horaires à Bruxelles-National - Dimanche 08 Mai 2022
Heure UTC1 Température [°C] Vent [km/h] Hum. [%] Pres.4 [hPa] Visi. [Km] Nébu. [octa] Préc.5 [mm] Cond.
2m. Res. Ros. Dir.2 Vit. Moy. Raf.3
23:00 10.9 10.9 5.6 NE 1.9 3.7 3.7 70 1027.5(0.6/3h) 40 0/8 -- --
22:00 11.6 11.6 5.7 ENE 1.9 5.6 7.4 67 1027.5(1.0/3h) 40 0/8 -- --
21:00 12.2 12.1 6.0 NE 5.6 7.4 11.1 66 1027.3(1.1/3h) 40 0/8 -- --
20:00 13.9 13.9 5.1 N 5.6 7.4 9.3 55 1026.9(0.7/3h) 40 0/8 -- --
19:00 16.5 16.5 4.4 N 7.4 7.4 11.1 45 1026.4(0.1/3h) 40 0/8 -- --
18:00 18.2 18.2 4.2 NNE 7.4 7.4 13.0 39 1026(-0.5/3h) 40 0/8 0/12h
--
17:00 18.8 18.8 3.3 NE 5.6 5.6 11.1 36 1026.1(-0.9/3h) 50 1/8 -- --
16:00 19.1 19.1 3.4 ENE 3.7 7.4 13.0 35 1026.2(-1.1/3h) 50 1/8 -- --
15:00 18.6 18.6 2.3 NNE 5.6 7.4 13.0 34 1026.6(-1.2/3h) 50 1/8 -- --
14:00 18.8 18.8 3.0 E 5.6 7.4 13.0 35 1026.9(-1.0/3h) 50 1/8 -- --
13:00 19.2 19.2 3.7 NNO 3.7 7.4 13.0 36 1027.3(-0.8/3h) 50 1/8 -- --
12:00 17.7 17.7 1.7 ENE 7.4 11.1 16.7 34 1027.8(-0.4/3h) 50 1/8 0/6h
--
11:00 17.1 17.1 4.0 ENE 7.4 9.3 14.8 42 1028(-0.2/3h) 50 1/8 -- --
10:00 15.6 15.4 4.5 NE 9.3 9.3 14.8 48 1028.2(0.5/3h) 50 1/8 -- --
09:00 14.1 13.9 6.8 NE 7.4 9.3 13.0 61 1028.3(1.0/3h) 30 1/8 -- --
08:00 12.1 11.2 6.6 NNE 9.3 9.3 13.0 69 1028.1(1.4/3h) 27 7/8 -- --
07:00 12.0 11.5 7.7 NE 7.4 7.4 11.1 75 1027.8(1.4/3h) 27 7/8 -- --
06:00 10.9 10.6 8.2 NE 5.6 7.4 9.3 83 1027.4(1.0/3h) 25 7/8 0/12h
--
05:00 9.7 9.7 7.6 N 3.7 3.7 9.3 87 1026.8(0.5/3h) 15 2/8 -- --
04:00 10.6 10.6 8.1 N 1.9 3.7 7.4 85 1026.4(0.2/3h) 15 6/8 -- --
03:00 10.6 10.6 8.3 NE 3.7 3.7 5.6 86 1026.4(0.2/3h) 15 3/8 -- --
02:00 9.3 9.3 7.7 N 1.9 1.9 5.6 90 1026.3(0.2/3h) 15 1/8 -- --
01:00 10.9 10.9 8.9 N 1.9 1.9 5.6 87 1026.2(0.4/3h) 15 1/8 -- --
00:00 10.9 10.9 9.4 NO 1.9 9.3 13.0 90 1026.2(0.5/3h) 6 1/8 0/6h
0.6/24h
--

1 Coordinated Universal Time. Actuellement il est 19:00 locale et 17:00 UTC.

2 Le vent souffle depuis la direction indiquée vers la direction oposée.

3 Les rafales max. sont disponible 40 min après l'heure du relevé.

4 Pour les stations d'altitude (plus de 600m) le géopotentiel du niveau le plus proche de la pression obligatoire est indiqué.

5 Les stations disposant d'un diffuseur peuvent indiquer "trace". Cela signifie que des précipitations ont touchés le sol mais que la quantité est inférieure à 0.1 mm.

Récapitulatif de la journée
Température [°C] Vent [km/h] Ensoleillement4 [h] Precipitations totale5 [mm] Pression [Hpa]
Min1 Max.2 Moy.3 Max. Min Max.
9.2 20.0 6.7 16.7 0 h 0 min 0 1026.0 1028.3

1 Température minimale relevée entre 18:00 UTC la veille et 18:00 UTC le jour donné.

2 Température maximale relevée entre 06:00 UTC le jour donné et 06:00 UTC le lendemain.

3 Vent moyen de la journée basé sur les relevés horaires.

4 Ensoleillement en heures relevé entre 06:00 UTC la veille et 06:00 UTC le jour donné.

5 Précipitations totales tombées entre 06:00 UTC la jour donné et 06:00 UTC le lendemain.

Graphiques horaires